sensor_id;sensor_type;location;lat;lon;timestamp;P1;durP1;ratioP1;P2;durP2;ratioP2
12818;SDS011;6474;53.474;9.894;2023-04-24T00:01:32;2.43;;;2.30;;
12818;SDS011;6474;53.474;9.894;2023-04-24T00:04:00;2.10;;;2.00;;
12818;SDS011;6474;53.474;9.894;2023-04-24T00:06:29;2.83;;;2.37;;
12818;SDS011;6474;53.474;9.894;2023-04-24T00:08:59;2.87;;;2.60;;
12818;SDS011;6474;53.474;9.894;2023-04-24T00:11:27;2.33;;;2.13;;
12818;SDS011;6474;53.474;9.894;2023-04-24T00:13:55;2.50;;;2.20;;
12818;SDS011;6474;53.474;9.894;2023-04-24T00:16:24;1.97;;;1.97;;
12818;SDS011;6474;53.474;9.894;2023-04-24T00:18:52;2.47;;;2.47;;
12818;SDS011;6474;53.474;9.894;2023-04-24T00:21:20;2.30;;;2.17;;
12818;SDS011;6474;53.474;9.894;2023-04-24T00:23:52;2.33;;;2.23;;
12818;SDS011;6474;53.474;9.894;2023-04-24T00:26:20;2.53;;;2.40;;
12818;SDS011;6474;53.474;9.894;2023-04-24T00:28:48;2.10;;;2.00;;
12818;SDS011;6474;53.474;9.894;2023-04-24T00:31:15;2.37;;;2.30;;
12818;SDS011;6474;53.474;9.894;2023-04-24T00:33:45;1.90;;;1.80;;
12818;SDS011;6474;53.474;9.894;2023-04-24T00:36:12;2.30;;;2.20;;
12818;SDS011;6474;53.474;9.894;2023-04-24T00:38:40;2.30;;;2.20;;
12818;SDS011;6474;53.474;9.894;2023-04-24T00:41:08;2.07;;;2.07;;
12818;SDS011;6474;53.474;9.894;2023-04-24T00:43:36;2.57;;;2.47;;
12818;SDS011;6474;53.474;9.894;2023-04-24T00:46:04;2.13;;;2.07;;
12818;SDS011;6474;53.474;9.894;2023-04-24T00:48:32;2.43;;;2.23;;
12818;SDS011;6474;53.474;9.894;2023-04-24T00:51:01;2.23;;;2.20;;
12818;SDS011;6474;53.474;9.894;2023-04-24T00:53:29;2.20;;;2.10;;
12818;SDS011;6474;53.474;9.894;2023-04-24T00:55:57;2.07;;;1.97;;
12818;SDS011;6474;53.474;9.894;2023-04-24T00:58:25;2.60;;;2.50;;
12818;SDS011;6474;53.474;9.894;2023-04-24T01:00:53;2.07;;;1.97;;
12818;SDS011;6474;53.474;9.894;2023-04-24T01:03:24;1.93;;;1.83;;
12818;SDS011;6474;53.474;9.894;2023-04-24T01:05:56;2.17;;;2.07;;
12818;SDS011;6474;53.474;9.894;2023-04-24T01:08:26;1.43;;;1.43;;
12818;SDS011;6474;53.474;9.894;2023-04-24T01:10:55;1.73;;;1.73;;
12818;SDS011;6474;53.474;9.894;2023-04-24T01:13:24;2.07;;;2.00;;
12818;SDS011;6474;53.474;9.894;2023-04-24T01:15:53;1.70;;;1.70;;
12818;SDS011;6474;53.474;9.894;2023-04-24T01:18:20;1.90;;;1.90;;
12818;SDS011;6474;53.474;9.894;2023-04-24T01:20:48;1.70;;;1.70;;
12818;SDS011;6474;53.474;9.894;2023-04-24T01:23:21;1.70;;;1.70;;
12818;SDS011;6474;53.474;9.894;2023-04-24T01:25:49;2.10;;;2.00;;
12818;SDS011;6474;53.474;9.894;2023-04-24T01:28:17;1.77;;;1.67;;
12818;SDS011;6474;53.474;9.894;2023-04-24T01:30:45;1.87;;;1.77;;
12818;SDS011;6474;53.474;9.894;2023-04-24T01:33:13;1.57;;;1.57;;
12818;SDS011;6474;53.474;9.894;2023-04-24T01:35:41;1.70;;;1.70;;
12818;SDS011;6474;53.474;9.894;2023-04-24T01:38:09;1.70;;;1.60;;
12818;SDS011;6474;53.474;9.894;2023-04-24T01:40:39;1.77;;;1.77;;
12818;SDS011;6474;53.474;9.894;2023-04-24T01:43:06;1.70;;;1.70;;
12818;SDS011;6474;53.474;9.894;2023-04-24T01:45:34;1.60;;;1.60;;
12818;SDS011;6474;53.474;9.894;2023-04-24T01:48:02;1.60;;;1.50;;
12818;SDS011;6474;53.474;9.894;2023-04-24T01:50:30;2.60;;;1.20;;
12818;SDS011;6474;53.474;9.894;2023-04-24T01:52:58;1.40;;;1.40;;
12818;SDS011;6474;53.474;9.894;2023-04-24T01:55:26;1.57;;;1.40;;
12818;SDS011;6474;53.474;9.894;2023-04-24T01:57:56;1.20;;;1.20;;
12818;SDS011;6474;53.474;9.894;2023-04-24T02:00:24;1.03;;;1.03;;
12818;SDS011;6474;53.474;9.894;2023-04-24T02:02:52;1.27;;;1.27;;
12818;SDS011;6474;53.474;9.894;2023-04-24T02:05:20;1.20;;;1.20;;
12818;SDS011;6474;53.474;9.894;2023-04-24T02:07:48;1.10;;;1.10;;
12818;SDS011;6474;53.474;9.894;2023-04-24T02:10:16;1.20;;;1.20;;
12818;SDS011;6474;53.474;9.894;2023-04-24T02:12:44;1.20;;;1.20;;
12818;SDS011;6474;53.474;9.894;2023-04-24T02:15:13;1.10;;;1.10;;
12818;SDS011;6474;53.474;9.894;2023-04-24T02:17:41;1.37;;;1.37;;
12818;SDS011;6474;53.474;9.894;2023-04-24T02:20:09;1.40;;;1.40;;
12818;SDS011;6474;53.474;9.894;2023-04-24T02:22:37;1.40;;;1.40;;
12818;SDS011;6474;53.474;9.894;2023-04-24T02:25:05;1.10;;;1.10;;
12818;SDS011;6474;53.474;9.894;2023-04-24T02:27:34;1.50;;;1.50;;
12818;SDS011;6474;53.474;9.894;2023-04-24T02:30:02;1.10;;;1.10;;
12818;SDS011;6474;53.474;9.894;2023-04-24T02:32:31;1.13;;;1.13;;
12818;SDS011;6474;53.474;9.894;2023-04-24T02:35:00;1.00;;;1.00;;
12818;SDS011;6474;53.474;9.894;2023-04-24T02:37:28;1.30;;;1.30;;
12818;SDS011;6474;53.474;9.894;2023-04-24T02:39:56;1.13;;;1.13;;
12818;SDS011;6474;53.474;9.894;2023-04-24T02:42:24;1.00;;;1.00;;
12818;SDS011;6474;53.474;9.894;2023-04-24T02:44:52;1.40;;;1.30;;
12818;SDS011;6474;53.474;9.894;2023-04-24T02:47:19;1.00;;;1.00;;
12818;SDS011;6474;53.474;9.894;2023-04-24T02:49:48;1.30;;;1.30;;
12818;SDS011;6474;53.474;9.894;2023-04-24T02:52:16;0.90;;;0.90;;
12818;SDS011;6474;53.474;9.894;2023-04-24T02:54:44;0.77;;;0.77;;
12818;SDS011;6474;53.474;9.894;2023-04-24T02:57:12;2.00;;;1.20;;
12818;SDS011;6474;53.474;9.894;2023-04-24T02:59:40;0.90;;;0.90;;
12818;SDS011;6474;53.474;9.894;2023-04-24T03:02:08;1.17;;;1.17;;
12818;SDS011;6474;53.474;9.894;2023-04-24T03:04:36;0.83;;;0.83;;
12818;SDS011;6474;53.474;9.894;2023-04-24T03:07:07;1.00;;;1.00;;
12818;SDS011;6474;53.474;9.894;2023-04-24T03:09:38;1.23;;;0.80;;
12818;SDS011;6474;53.474;9.894;2023-04-24T03:12:06;0.90;;;0.90;;
12818;SDS011;6474;53.474;9.894;2023-04-24T03:14:34;1.07;;;1.07;;
12818;SDS011;6474;53.474;9.894;2023-04-24T03:17:02;0.83;;;0.83;;
12818;SDS011;6474;53.474;9.894;2023-04-24T03:19:29;0.80;;;0.80;;
12818;SDS011;6474;53.474;9.894;2023-04-24T03:21:57;0.90;;;0.90;;
12818;SDS011;6474;53.474;9.894;2023-04-24T03:24:26;1.00;;;1.00;;
12818;SDS011;6474;53.474;9.894;2023-04-24T03:26:54;0.50;;;0.50;;
12818;SDS011;6474;53.474;9.894;2023-04-24T03:29:23;0.63;;;0.63;;
12818;SDS011;6474;53.474;9.894;2023-04-24T03:31:51;0.63;;;0.63;;
12818;SDS011;6474;53.474;9.894;2023-04-24T03:34:18;0.70;;;0.70;;
12818;SDS011;6474;53.474;9.894;2023-04-24T03:36:46;0.90;;;0.90;;
12818;SDS011;6474;53.474;9.894;2023-04-24T03:39:14;0.57;;;0.57;;
12818;SDS011;6474;53.474;9.894;2023-04-24T03:41:43;4.20;;;0.80;;
12818;SDS011;6474;53.474;9.894;2023-04-24T03:44:11;0.60;;;0.60;;
12818;SDS011;6474;53.474;9.894;2023-04-24T03:46:39;0.70;;;0.70;;
12818;SDS011;6474;53.474;9.894;2023-04-24T03:49:07;0.70;;;0.70;;
12818;SDS011;6474;53.474;9.894;2023-04-24T03:51:35;0.90;;;0.90;;
12818;SDS011;6474;53.474;9.894;2023-04-24T03:54:03;0.73;;;0.73;;
12818;SDS011;6474;53.474;9.894;2023-04-24T03:56:31;0.77;;;0.77;;
12818;SDS011;6474;53.474;9.894;2023-04-24T03:59:00;0.80;;;0.80;;
12818;SDS011;6474;53.474;9.894;2023-04-24T04:01:28;0.60;;;0.60;;
12818;SDS011;6474;53.474;9.894;2023-04-24T04:03:56;0.87;;;0.87;;
12818;SDS011;6474;53.474;9.894;2023-04-24T04:06:25;0.70;;;0.70;;
12818;SDS011;6474;53.474;9.894;2023-04-24T04:08:53;0.77;;;0.77;;
12818;SDS011;6474;53.474;9.894;2023-04-24T04:11:20;0.70;;;0.70;;
12818;SDS011;6474;53.474;9.894;2023-04-24T04:13:48;0.83;;;0.83;;
12818;SDS011;6474;53.474;9.894;2023-04-24T04:16:17;0.50;;;0.50;;
12818;SDS011;6474;53.474;9.894;2023-04-24T04:18:45;0.73;;;0.73;;
12818;SDS011;6474;53.474;9.894;2023-04-24T04:21:13;0.50;;;0.50;;
12818;SDS011;6474;53.474;9.894;2023-04-24T04:23:41;0.50;;;0.50;;
12818;SDS011;6474;53.474;9.894;2023-04-24T04:26:09;0.70;;;0.70;;
12818;SDS011;6474;53.474;9.894;2023-04-24T04:28:38;0.40;;;0.40;;
12818;SDS011;6474;53.474;9.894;2023-04-24T04:31:07;0.40;;;0.40;;
12818;SDS011;6474;53.474;9.894;2023-04-24T04:33:37;0.50;;;0.50;;
12818;SDS011;6474;53.474;9.894;2023-04-24T04:36:05;0.60;;;0.60;;
12818;SDS011;6474;53.474;9.894;2023-04-24T04:38:34;1.23;;;0.57;;
12818;SDS011;6474;53.474;9.894;2023-04-24T04:41:03;0.83;;;0.80;;
12818;SDS011;6474;53.474;9.894;2023-04-24T04:43:31;0.40;;;0.40;;
12818;SDS011;6474;53.474;9.894;2023-04-24T04:46:00;0.70;;;0.70;;
12818;SDS011;6474;53.474;9.894;2023-04-24T04:48:29;0.50;;;0.50;;
12818;SDS011;6474;53.474;9.894;2023-04-24T04:50:59;0.73;;;0.73;;
12818;SDS011;6474;53.474;9.894;2023-04-24T04:53:27;1.23;;;0.50;;
12818;SDS011;6474;53.474;9.894;2023-04-24T04:55:55;1.30;;;0.70;;
12818;SDS011;6474;53.474;9.894;2023-04-24T04:58:23;0.60;;;0.60;;
12818;SDS011;6474;53.474;9.894;2023-04-24T05:00:51;0.60;;;0.60;;
12818;SDS011;6474;53.474;9.894;2023-04-24T05:03:19;0.70;;;0.60;;
12818;SDS011;6474;53.474;9.894;2023-04-24T05:05:47;0.70;;;0.70;;
12818;SDS011;6474;53.474;9.894;2023-04-24T05:08:16;0.80;;;0.80;;
12818;SDS011;6474;53.474;9.894;2023-04-24T05:10:53;1.63;;;0.70;;
12818;SDS011;6474;53.474;9.894;2023-04-24T05:13:21;0.60;;;0.60;;
12818;SDS011;6474;53.474;9.894;2023-04-24T05:16:04;0.43;;;0.43;;
12818;SDS011;6474;53.474;9.894;2023-04-24T05:18:32;0.73;;;0.73;;
12818;SDS011;6474;53.474;9.894;2023-04-24T05:21:00;0.67;;;0.67;;
12818;SDS011;6474;53.474;9.894;2023-04-24T05:23:29;0.43;;;0.43;;
12818;SDS011;6474;53.474;9.894;2023-04-24T05:25:57;1.17;;;0.53;;
12818;SDS011;6474;53.474;9.894;2023-04-24T05:28:25;0.40;;;0.40;;
12818;SDS011;6474;53.474;9.894;2023-04-24T05:30:54;0.40;;;0.40;;
12818;SDS011;6474;53.474;9.894;2023-04-24T05:33:22;0.30;;;0.30;;
12818;SDS011;6474;53.474;9.894;2023-04-24T05:35:50;0.20;;;0.20;;
12818;SDS011;6474;53.474;9.894;2023-04-24T05:38:18;0.50;;;0.50;;
12818;SDS011;6474;53.474;9.894;2023-04-24T05:40:47;0.77;;;0.50;;
12818;SDS011;6474;53.474;9.894;2023-04-24T05:43:15;0.53;;;0.53;;
12818;SDS011;6474;53.474;9.894;2023-04-24T05:45:43;0.70;;;0.70;;
12818;SDS011;6474;53.474;9.894;2023-04-24T05:48:11;0.47;;;0.47;;
12818;SDS011;6474;53.474;9.894;2023-04-24T05:50:38;0.43;;;0.43;;
12818;SDS011;6474;53.474;9.894;2023-04-24T05:53:07;0.67;;;0.67;;
12818;SDS011;6474;53.474;9.894;2023-04-24T05:55:36;0.50;;;0.50;;
12818;SDS011;6474;53.474;9.894;2023-04-24T05:58:05;0.50;;;0.50;;
12818;SDS011;6474;53.474;9.894;2023-04-24T06:00:34;0.80;;;0.80;;
12818;SDS011;6474;53.474;9.894;2023-04-24T06:03:02;0.70;;;0.70;;
12818;SDS011;6474;53.474;9.894;2023-04-24T06:05:30;0.70;;;0.70;;
12818;SDS011;6474;53.474;9.894;2023-04-24T06:07:58;0.50;;;0.50;;
12818;SDS011;6474;53.474;9.894;2023-04-24T06:10:26;0.67;;;0.67;;
12818;SDS011;6474;53.474;9.894;2023-04-24T06:12:54;0.90;;;0.90;;
12818;SDS011;6474;53.474;9.894;2023-04-24T06:15:28;0.60;;;0.60;;
12818;SDS011;6474;53.474;9.894;2023-04-24T06:17:57;1.50;;;0.60;;
12818;SDS011;6474;53.474;9.894;2023-04-24T06:20:25;1.00;;;1.00;;
12818;SDS011;6474;53.474;9.894;2023-04-24T06:22:54;1.03;;;0.80;;
12818;SDS011;6474;53.474;9.894;2023-04-24T06:25:21;0.80;;;0.80;;
12818;SDS011;6474;53.474;9.894;2023-04-24T06:27:51;0.60;;;0.60;;
12818;SDS011;6474;53.474;9.894;2023-04-24T06:30:19;3.00;;;0.93;;
12818;SDS011;6474;53.474;9.894;2023-04-24T06:32:48;1.10;;;1.10;;
12818;SDS011;6474;53.474;9.894;2023-04-24T06:35:16;0.60;;;0.60;;
12818;SDS011;6474;53.474;9.894;2023-04-24T06:37:44;0.70;;;0.70;;
12818;SDS011;6474;53.474;9.894;2023-04-24T06:40:13;0.50;;;0.50;;
12818;SDS011;6474;53.474;9.894;2023-04-24T06:42:41;0.70;;;0.70;;
12818;SDS011;6474;53.474;9.894;2023-04-24T06:45:09;0.87;;;0.87;;
12818;SDS011;6474;53.474;9.894;2023-04-24T06:47:37;0.70;;;0.70;;
12818;SDS011;6474;53.474;9.894;2023-04-24T06:50:07;0.60;;;0.60;;
12818;SDS011;6474;53.474;9.894;2023-04-24T06:52:35;1.30;;;1.30;;
12818;SDS011;6474;53.474;9.894;2023-04-24T06:55:03;0.90;;;0.90;;
12818;SDS011;6474;53.474;9.894;2023-04-24T06:57:32;0.90;;;0.90;;
12818;SDS011;6474;53.474;9.894;2023-04-24T06:59:59;0.87;;;0.87;;
12818;SDS011;6474;53.474;9.894;2023-04-24T07:02:27;2.13;;;1.07;;
12818;SDS011;6474;53.474;9.894;2023-04-24T07:04:56;1.20;;;0.97;;
12818;SDS011;6474;53.474;9.894;2023-04-24T07:07:25;0.57;;;0.57;;
12818;SDS011;6474;53.474;9.894;2023-04-24T07:09:53;1.13;;;1.13;;
12818;SDS011;6474;53.474;9.894;2023-04-24T07:12:22;1.13;;;1.13;;
12818;SDS011;6474;53.474;9.894;2023-04-24T07:14:50;1.43;;;1.43;;
12818;SDS011;6474;53.474;9.894;2023-04-24T07:17:18;1.53;;;1.53;;
12818;SDS011;6474;53.474;9.894;2023-04-24T07:19:45;1.13;;;1.13;;
12818;SDS011;6474;53.474;9.894;2023-04-24T07:22:13;1.20;;;1.20;;
12818;SDS011;6474;53.474;9.894;2023-04-24T07:24:44;1.33;;;1.33;;
12818;SDS011;6474;53.474;9.894;2023-04-24T07:27:12;1.93;;;1.40;;
12818;SDS011;6474;53.474;9.894;2023-04-24T07:29:41;1.80;;;1.70;;
12818;SDS011;6474;53.474;9.894;2023-04-24T07:32:09;1.30;;;1.30;;
12818;SDS011;6474;53.474;9.894;2023-04-24T07:34:37;5.00;;;2.30;;
12818;SDS011;6474;53.474;9.894;2023-04-24T07:37:05;2.40;;;2.20;;
12818;SDS011;6474;53.474;9.894;2023-04-24T07:39:33;1.90;;;1.80;;
12818;SDS011;6474;53.474;9.894;2023-04-24T07:42:02;1.77;;;1.77;;
12818;SDS011;6474;53.474;9.894;2023-04-24T07:44:30;2.17;;;1.97;;
12818;SDS011;6474;53.474;9.894;2023-04-24T07:46:58;1.47;;;1.47;;
12818;SDS011;6474;53.474;9.894;2023-04-24T07:49:26;1.70;;;1.70;;
12818;SDS011;6474;53.474;9.894;2023-04-24T07:51:54;1.53;;;1.53;;
12818;SDS011;6474;53.474;9.894;2023-04-24T07:54:21;2.07;;;1.97;;
12818;SDS011;6474;53.474;9.894;2023-04-24T07:56:51;1.77;;;1.77;;
12818;SDS011;6474;53.474;9.894;2023-04-24T07:59:20;1.73;;;1.73;;
12818;SDS011;6474;53.474;9.894;2023-04-24T08:01:48;1.93;;;1.83;;
12818;SDS011;6474;53.474;9.894;2023-04-24T08:04:17;1.87;;;1.87;;
12818;SDS011;6474;53.474;9.894;2023-04-24T08:06:46;1.87;;;1.87;;
12818;SDS011;6474;53.474;9.894;2023-04-24T08:09:14;1.77;;;1.77;;
12818;SDS011;6474;53.474;9.894;2023-04-24T08:11:42;2.17;;;2.07;;
12818;SDS011;6474;53.474;9.894;2023-04-24T08:14:11;1.90;;;1.80;;
12818;SDS011;6474;53.474;9.894;2023-04-24T08:16:40;1.83;;;1.73;;
12818;SDS011;6474;53.474;9.894;2023-04-24T08:19:09;1.50;;;1.50;;
12818;SDS011;6474;53.474;9.894;2023-04-24T08:21:37;2.00;;;1.90;;
12818;SDS011;6474;53.474;9.894;2023-04-24T08:24:05;3.10;;;2.00;;
12818;SDS011;6474;53.474;9.894;2023-04-24T08:26:34;2.13;;;2.03;;
12818;SDS011;6474;53.474;9.894;2023-04-24T08:29:01;1.80;;;1.80;;
12818;SDS011;6474;53.474;9.894;2023-04-24T08:31:29;1.97;;;1.97;;
12818;SDS011;6474;53.474;9.894;2023-04-24T08:33:59;2.43;;;2.37;;
12818;SDS011;6474;53.474;9.894;2023-04-24T08:36:27;2.50;;;2.43;;
12818;SDS011;6474;53.474;9.894;2023-04-24T08:39:12;2.17;;;2.07;;
12818;SDS011;6474;53.474;9.894;2023-04-24T08:41:41;1.90;;;1.80;;
12818;SDS011;6474;53.474;9.894;2023-04-24T08:44:11;2.03;;;2.03;;
12818;SDS011;6474;53.474;9.894;2023-04-24T08:46:42;2.00;;;1.93;;
12818;SDS011;6474;53.474;9.894;2023-04-24T08:49:11;1.77;;;1.77;;
12818;SDS011;6474;53.474;9.894;2023-04-24T08:51:42;2.43;;;2.33;;
12818;SDS011;6474;53.474;9.894;2023-04-24T08:56:40;1.90;;;1.83;;
12818;SDS011;6474;53.474;9.894;2023-04-24T08:59:11;2.00;;;2.00;;
12818;SDS011;6474;53.474;9.894;2023-04-24T09:01:38;2.67;;;1.90;;
12818;SDS011;6474;53.474;9.894;2023-04-24T09:04:08;2.00;;;1.90;;
12818;SDS011;6474;53.474;9.894;2023-04-24T09:06:40;1.90;;;1.90;;
12818;SDS011;6474;53.474;9.894;2023-04-24T09:09:07;2.10;;;2.00;;
12818;SDS011;6474;53.474;9.894;2023-04-24T09:11:37;2.87;;;2.10;;
12818;SDS011;6474;53.474;9.894;2023-04-24T09:14:05;1.90;;;1.90;;
12818;SDS011;6474;53.474;9.894;2023-04-24T09:16:34;2.00;;;2.00;;
12818;SDS011;6474;53.474;9.894;2023-04-24T09:19:03;2.47;;;2.27;;
12818;SDS011;6474;53.474;9.894;2023-04-24T09:21:31;2.03;;;1.93;;
12818;SDS011;6474;53.474;9.894;2023-04-24T09:24:02;2.90;;;2.10;;
12818;SDS011;6474;53.474;9.894;2023-04-24T09:26:31;1.75;;;1.75;;
12818;SDS011;6474;53.474;9.894;2023-04-24T09:28:59;2.03;;;2.03;;
12818;SDS011;6474;53.474;9.894;2023-04-24T09:31:28;2.10;;;2.00;;
12818;SDS011;6474;53.474;9.894;2023-04-24T09:33:57;2.00;;;1.90;;
12818;SDS011;6474;53.474;9.894;2023-04-24T09:36:29;2.00;;;2.00;;
12818;SDS011;6474;53.474;9.894;2023-04-24T09:38:59;1.90;;;1.90;;
12818;SDS011;6474;53.474;9.894;2023-04-24T09:41:31;2.37;;;2.27;;
12818;SDS011;6474;53.474;9.894;2023-04-24T09:44:01;2.07;;;2.00;;
12818;SDS011;6474;53.474;9.894;2023-04-24T09:46:40;2.40;;;2.30;;
12818;SDS011;6474;53.474;9.894;2023-04-24T09:49:09;2.37;;;2.27;;
12818;SDS011;6474;53.474;9.894;2023-04-24T09:51:38;2.37;;;2.13;;
12818;SDS011;6474;53.474;9.894;2023-04-24T09:54:13;2.17;;;2.07;;
12818;SDS011;6474;53.474;9.894;2023-04-24T09:56:43;2.40;;;2.30;;
12818;SDS011;6474;53.474;9.894;2023-04-24T09:59:12;2.63;;;2.53;;
12818;SDS011;6474;53.474;9.894;2023-04-24T10:01:41;2.87;;;1.93;;
12818;SDS011;6474;53.474;9.894;2023-04-24T10:04:17;2.67;;;2.57;;
12818;SDS011;6474;53.474;9.894;2023-04-24T10:06:46;3.10;;;2.90;;
12818;SDS011;6474;53.474;9.894;2023-04-24T10:09:18;2.50;;;2.50;;
12818;SDS011;6474;53.474;9.894;2023-04-24T10:11:48;3.03;;;2.87;;
12818;SDS011;6474;53.474;9.894;2023-04-24T10:14:17;3.50;;;3.30;;
12818;SDS011;6474;53.474;9.894;2023-04-24T10:16:47;3.90;;;3.53;;
12818;SDS011;6474;53.474;9.894;2023-04-24T10:19:16;3.50;;;3.27;;
12818;SDS011;6474;53.474;9.894;2023-04-24T10:21:46;3.30;;;3.10;;
12818;SDS011;6474;53.474;9.894;2023-04-24T10:24:14;3.27;;;3.07;;
12818;SDS011;6474;53.474;9.894;2023-04-24T10:26:45;4.00;;;3.17;;
12818;SDS011;6474;53.474;9.894;2023-04-24T10:29:14;3.20;;;3.00;;
12818;SDS011;6474;53.474;9.894;2023-04-24T10:31:43;3.60;;;3.30;;
12818;SDS011;6474;53.474;9.894;2023-04-24T10:34:14;3.73;;;3.53;;
12818;SDS011;6474;53.474;9.894;2023-04-24T10:36:45;3.47;;;3.27;;
12818;SDS011;6474;53.474;9.894;2023-04-24T10:39:16;4.03;;;3.20;;
12818;SDS011;6474;53.474;9.894;2023-04-24T10:41:54;5.13;;;3.42;;
12818;SDS011;6474;53.474;9.894;2023-04-24T10:44:23;3.07;;;2.87;;
12818;SDS011;6474;53.474;9.894;2023-04-24T10:46:53;3.40;;;3.00;;
12818;SDS011;6474;53.474;9.894;2023-04-24T10:49:27;3.23;;;2.97;;
12818;SDS011;6474;53.474;9.894;2023-04-24T10:51:59;3.80;;;3.43;;
12818;SDS011;6474;53.474;9.894;2023-04-24T10:54:33;2.97;;;2.77;;
12818;SDS011;6474;53.474;9.894;2023-04-24T11:00:10;3.43;;;3.00;;
12818;SDS011;6474;53.474;9.894;2023-04-24T11:02:42;5.93;;;3.90;;
12818;SDS011;6474;53.474;9.894;2023-04-24T11:05:16;3.30;;;3.00;;
12818;SDS011;6474;53.474;9.894;2023-04-24T11:10:38;3.22;;;3.03;;
12818;SDS011;6474;53.474;9.894;2023-04-24T11:13:08;3.73;;;3.43;;
12818;SDS011;6474;53.474;9.894;2023-04-24T11:15:38;3.38;;;3.10;;
12818;SDS011;6474;53.474;9.894;2023-04-24T11:18:12;3.70;;;3.40;;
12818;SDS011;6474;53.474;9.894;2023-04-24T11:20:44;3.20;;;3.10;;
12818;SDS011;6474;53.474;9.894;2023-04-24T11:23:13;2.90;;;2.80;;
12818;SDS011;6474;53.474;9.894;2023-04-24T11:25:44;3.13;;;2.88;;
12818;SDS011;6474;53.474;9.894;2023-04-24T11:28:15;3.90;;;3.23;;
12818;SDS011;6474;53.474;9.894;2023-04-24T11:30:43;3.03;;;2.72;;
12818;SDS011;6474;53.474;9.894;2023-04-24T11:33:11;3.88;;;3.58;;
12818;SDS011;6474;53.474;9.894;2023-04-24T11:35:46;3.30;;;3.10;;
12818;SDS011;6474;53.474;9.894;2023-04-24T11:38:14;3.58;;;3.38;;
12818;SDS011;6474;53.474;9.894;2023-04-24T11:40:50;3.73;;;2.87;;
12818;SDS011;6474;53.474;9.894;2023-04-24T11:43:22;3.17;;;2.73;;
12818;SDS011;6474;53.474;9.894;2023-04-24T11:45:51;2.63;;;2.50;;
12818;SDS011;6474;53.474;9.894;2023-04-24T11:48:20;3.43;;;2.93;;
12818;SDS011;6474;53.474;9.894;2023-04-24T11:50:50;2.33;;;2.22;;
12818;SDS011;6474;53.474;9.894;2023-04-24T11:53:18;3.23;;;3.03;;
12818;SDS011;6474;53.474;9.894;2023-04-24T11:55:47;2.97;;;2.70;;
12818;SDS011;6474;53.474;9.894;2023-04-24T11:58:15;2.42;;;2.33;;
12818;SDS011;6474;53.474;9.894;2023-04-24T12:00:55;2.87;;;2.77;;
12818;SDS011;6474;53.474;9.894;2023-04-24T12:03:24;2.80;;;2.70;;
12818;SDS011;6474;53.474;9.894;2023-04-24T12:05:52;3.03;;;2.83;;
12818;SDS011;6474;53.474;9.894;2023-04-24T12:08:31;2.20;;;2.10;;
12818;SDS011;6474;53.474;9.894;2023-04-24T12:11:00;2.83;;;2.63;;
12818;SDS011;6474;53.474;9.894;2023-04-24T12:13:30;2.37;;;2.27;;
12818;SDS011;6474;53.474;9.894;2023-04-24T12:15:58;2.33;;;2.23;;
12818;SDS011;6474;53.474;9.894;2023-04-24T12:18:26;2.30;;;2.28;;
12818;SDS011;6474;53.474;9.894;2023-04-24T12:20:53;2.77;;;2.57;;
12818;SDS011;6474;53.474;9.894;2023-04-24T12:23:35;2.67;;;2.40;;
12818;SDS011;6474;53.474;9.894;2023-04-24T12:26:03;2.38;;;2.28;;
12818;SDS011;6474;53.474;9.894;2023-04-24T12:28:35;2.75;;;2.55;;
12818;SDS011;6474;53.474;9.894;2023-04-24T12:31:04;2.53;;;2.40;;
12818;SDS011;6474;53.474;9.894;2023-04-24T12:33:34;2.50;;;2.40;;
12818;SDS011;6474;53.474;9.894;2023-04-24T12:36:03;2.40;;;2.30;;
12818;SDS011;6474;53.474;9.894;2023-04-24T12:38:31;2.37;;;2.30;;
12818;SDS011;6474;53.474;9.894;2023-04-24T12:41:06;2.40;;;2.30;;
12818;SDS011;6474;53.474;9.894;2023-04-24T12:43:37;2.43;;;2.33;;
12818;SDS011;6474;53.474;9.894;2023-04-24T12:46:06;2.67;;;2.57;;
12818;SDS011;6474;53.474;9.894;2023-04-24T12:48:33;2.47;;;2.37;;
12818;SDS011;6474;53.474;9.894;2023-04-24T12:51:01;2.13;;;2.03;;
12818;SDS011;6474;53.474;9.894;2023-04-24T12:53:29;1.80;;;1.80;;
12818;SDS011;6474;53.474;9.894;2023-04-24T12:55:57;2.20;;;2.13;;
12818;SDS011;6474;53.474;9.894;2023-04-24T12:58:25;3.27;;;2.30;;
12818;SDS011;6474;53.474;9.894;2023-04-24T13:00:54;1.63;;;1.53;;
12818;SDS011;6474;53.474;9.894;2023-04-24T13:03:22;1.60;;;1.60;;
12818;SDS011;6474;53.474;9.894;2023-04-24T13:05:50;1.60;;;1.60;;
12818;SDS011;6474;53.474;9.894;2023-04-24T13:08:18;1.73;;;1.73;;
12818;SDS011;6474;53.474;9.894;2023-04-24T13:10:46;2.03;;;1.93;;
12818;SDS011;6474;53.474;9.894;2023-04-24T13:13:13;1.60;;;1.60;;
12818;SDS011;6474;53.474;9.894;2023-04-24T13:15:42;1.73;;;1.73;;
12818;SDS011;6474;53.474;9.894;2023-04-24T13:18:11;1.63;;;1.63;;
12818;SDS011;6474;53.474;9.894;2023-04-24T13:20:38;1.60;;;1.60;;
12818;SDS011;6474;53.474;9.894;2023-04-24T13:23:07;1.93;;;1.90;;
12818;SDS011;6474;53.474;9.894;2023-04-24T13:25:35;1.73;;;1.73;;
12818;SDS011;6474;53.474;9.894;2023-04-24T13:28:05;1.70;;;1.70;;
12818;SDS011;6474;53.474;9.894;2023-04-24T13:30:32;1.70;;;1.70;;
12818;SDS011;6474;53.474;9.894;2023-04-24T13:33:00;1.73;;;1.73;;
12818;SDS011;6474;53.474;9.894;2023-04-24T13:35:30;2.47;;;2.37;;
12818;SDS011;6474;53.474;9.894;2023-04-24T13:37:58;3.37;;;1.80;;
12818;SDS011;6474;53.474;9.894;2023-04-24T13:40:27;1.30;;;1.30;;
12818;SDS011;6474;53.474;9.894;2023-04-24T13:42:55;1.80;;;1.80;;
12818;SDS011;6474;53.474;9.894;2023-04-24T13:45:23;1.77;;;1.77;;
12818;SDS011;6474;53.474;9.894;2023-04-24T13:47:51;1.83;;;1.83;;
12818;SDS011;6474;53.474;9.894;2023-04-24T13:50:20;1.97;;;1.97;;
12818;SDS011;6474;53.474;9.894;2023-04-24T13:52:49;1.67;;;1.63;;
12818;SDS011;6474;53.474;9.894;2023-04-24T13:55:17;1.80;;;1.73;;
12818;SDS011;6474;53.474;9.894;2023-04-24T13:57:45;1.90;;;1.80;;
12818;SDS011;6474;53.474;9.894;2023-04-24T14:00:13;1.63;;;1.63;;
12818;SDS011;6474;53.474;9.894;2023-04-24T14:02:41;1.93;;;1.93;;
12818;SDS011;6474;53.474;9.894;2023-04-24T14:05:09;1.47;;;1.47;;
12818;SDS011;6474;53.474;9.894;2023-04-24T14:07:38;1.87;;;1.83;;
12818;SDS011;6474;53.474;9.894;2023-04-24T14:10:07;1.93;;;1.83;;
12818;SDS011;6474;53.474;9.894;2023-04-24T14:12:36;1.77;;;1.77;;
12818;SDS011;6474;53.474;9.894;2023-04-24T14:15:04;1.90;;;1.87;;
12818;SDS011;6474;53.474;9.894;2023-04-24T14:17:32;1.50;;;1.50;;
12818;SDS011;6474;53.474;9.894;2023-04-24T14:20:00;1.80;;;1.70;;
12818;SDS011;6474;53.474;9.894;2023-04-24T14:22:29;1.87;;;1.77;;
12818;SDS011;6474;53.474;9.894;2023-04-24T14:24:57;1.20;;;1.20;;
12818;SDS011;6474;53.474;9.894;2023-04-24T14:27:26;1.10;;;1.10;;
12818;SDS011;6474;53.474;9.894;2023-04-24T14:29:54;1.60;;;1.60;;
12818;SDS011;6474;53.474;9.894;2023-04-24T14:32:22;1.80;;;1.70;;
12818;SDS011;6474;53.474;9.894;2023-04-24T14:34:50;2.27;;;2.17;;
12818;SDS011;6474;53.474;9.894;2023-04-24T14:37:17;1.67;;;1.67;;
12818;SDS011;6474;53.474;9.894;2023-04-24T14:39:46;1.67;;;1.67;;
12818;SDS011;6474;53.474;9.894;2023-04-24T14:42:27;2.03;;;1.93;;
12818;SDS011;6474;53.474;9.894;2023-04-24T14:44:55;2.40;;;2.30;;
12818;SDS011;6474;53.474;9.894;2023-04-24T14:47:23;2.20;;;2.17;;
12818;SDS011;6474;53.474;9.894;2023-04-24T14:49:51;2.07;;;1.90;;
12818;SDS011;6474;53.474;9.894;2023-04-24T14:52:19;2.40;;;2.30;;
12818;SDS011;6474;53.474;9.894;2023-04-24T14:54:47;1.97;;;1.87;;
12818;SDS011;6474;53.474;9.894;2023-04-24T14:57:14;2.23;;;2.23;;
12818;SDS011;6474;53.474;9.894;2023-04-24T14:59:44;2.10;;;2.00;;
12818;SDS011;6474;53.474;9.894;2023-04-24T15:02:11;1.77;;;1.77;;
12818;SDS011;6474;53.474;9.894;2023-04-24T15:04:41;1.70;;;1.50;;
12818;SDS011;6474;53.474;9.894;2023-04-24T15:07:10;2.00;;;1.90;;
12818;SDS011;6474;53.474;9.894;2023-04-24T15:09:37;1.67;;;1.57;;
12818;SDS011;6474;53.474;9.894;2023-04-24T15:12:05;1.90;;;1.67;;
12818;SDS011;6474;53.474;9.894;2023-04-24T15:14:33;1.63;;;1.63;;
12818;SDS011;6474;53.474;9.894;2023-04-24T15:17:02;1.00;;;1.00;;
12818;SDS011;6474;53.474;9.894;2023-04-24T15:19:30;0.67;;;0.67;;